Time;durP1;ratioP1;P1;durP2;ratioP2;P2;SDS_P1;SDS_P2;PMS_P1;PMS_P2;Temp;Humidity;BMP_temperature;BMP_pressure;BME280_temperature;BME280_humidity;BME280_pressure;Samples;Min_cycle;Max_cycle;Signal;HPM_P1;HPM_P2
2021/09/21 00:00:11;;;;;;;4.70;2.60;;;13.00;99.90;;;11.65;71.32;102216.72;2568648;30;138439;-40
2021/09/21 00:02:39;;;;;;;3.60;2.25;;;13.00;99.90;;;11.60;71.46;102215.59;2567639;30;137125;-39
2021/09/21 00:05:08;;;;;;;4.03;2.70;;;13.00;99.90;;;11.58;72.17;102209.47;2567656;30;138221;-40
2021/09/21 00:07:36;;;;;;;5.25;2.63;;;13.00;99.90;;;11.57;71.35;102222.28;2569280;30;138574;-40
2021/09/21 00:10:05;;;;;;;;;;;13.00;99.90;;;11.60;72.37;102232.00;2566623;30;138345;-40
2021/09/21 00:12:34;;;;;;;4.85;2.60;;;13.00;99.90;;;11.56;71.54;102223.31;2567429;30;137081;-40
2021/09/21 00:15:04;;;;;;;5.05;2.88;;;12.90;99.90;;;11.57;72.38;102224.19;2567536;30;138330;-40
2021/09/21 00:17:32;;;;;;;5.30;2.50;;;12.90;99.90;;;11.60;71.24;102242.94;2568326;30;136703;-42
2021/09/21 00:20:00;;;;;;;4.55;2.58;;;13.00;99.90;;;11.57;72.26;102237.84;2567271;30;137158;-39
2021/09/21 00:22:28;;;;;;;5.43;2.58;;;12.90;99.90;;;11.59;71.31;102243.97;2566205;30;136889;-39
2021/09/21 00:24:56;;;;;;;4.57;2.47;;;13.00;99.90;;;11.54;70.43;102244.53;2568646;30;137254;-39
2021/09/21 00:27:23;;;;;;;4.03;2.42;;;12.90;99.90;;;11.45;71.84;102235.53;2567109;30;137579;-39
2021/09/21 00:29:51;;;;;;;;;;;12.90;99.90;;;11.54;72.49;102252.72;2567588;30;139366;-40
2021/09/21 00:32:24;;;;;;;5.43;2.50;;;12.90;99.90;;;11.48;72.50;102250.72;2568615;30;137058;-39
2021/09/21 00:34:53;;;;;;;5.10;2.95;;;12.90;99.90;;;11.54;73.68;102255.44;2566779;30;137331;-40
2021/09/21 00:37:21;;;;;;;4.55;2.60;;;12.90;99.90;;;11.54;73.68;102255.44;2568595;30;136721;-40
2021/09/21 00:39:49;;;;;;;5.10;2.70;;;12.90;99.90;;;11.48;73.27;102259.75;2566485;30;136840;-40
2021/09/21 00:42:26;;;;;;;5.60;2.92;;;12.90;99.90;;;11.55;72.21;102262.63;2568539;30;137569;-40
2021/09/21 00:45:06;;;;;;;5.63;2.67;;;12.90;99.90;;;11.52;72.67;102263.81;2567823;30;138084;-39
2021/09/21 00:47:33;;;;;;;4.30;2.83;;;12.90;99.90;;;11.49;73.17;102261.47;2567137;30;137536;-39
2021/09/21 00:50:01;;;;;;;5.95;3.38;;;12.90;99.90;;;11.52;74.28;102254.78;2567091;30;138185;-39
2021/09/21 00:52:29;;;;;;;5.40;2.80;;;12.90;99.90;;;11.49;73.38;102250.53;2568878;30;138423;-40
2021/09/21 00:54:56;;;;;;;5.28;3.33;;;12.90;99.90;;;11.48;74.22;102256.19;2566297;30;137347;-40
2021/09/21 00:57:26;;;;;;;5.63;2.70;;;12.90;99.90;;;11.43;73.78;102251.25;2566996;30;137057;-39
2021/09/21 00:59:54;;;;;;;4.93;2.78;;;12.80;99.90;;;11.42;73.84;102254.19;2568065;30;138667;-39
2021/09/21 01:02:21;;;;;;;5.28;3.13;;;12.80;99.90;;;11.42;73.54;102263.22;2565226;30;137629;-39
2021/09/21 01:04:50;;;;;;;5.72;3.30;;;12.80;99.90;;;11.43;73.01;102256.72;2567251;30;137401;-39
2021/09/21 01:07:17;;;;;;;6.55;3.17;;;12.80;99.90;;;11.38;73.27;102256.44;2568843;30;137645;-39
2021/09/21 01:09:45;;;;;;;5.93;3.25;;;12.80;99.90;;;11.38;75.29;102256.44;2566510;30;138024;-40
2021/09/21 01:12:13;;;;;;;6.40;3.40;;;12.80;99.90;;;11.37;74.23;102268.41;2566648;30;137855;-39
2021/09/21 01:14:41;;;;;;;7.72;3.63;;;12.80;99.90;;;11.33;74.58;102256.97;2568301;30;137543;-39
2021/09/21 01:17:08;;;;;;;4.72;3.08;;;12.70;99.90;;;11.28;75.77;102255.84;2571679;30;137355;-40
2021/09/21 01:19:36;;;;;;;5.13;3.22;;;12.70;99.90;;;11.28;76.45;102264.88;2568703;30;138127;-40
2021/09/21 01:22:03;;;;;;;6.82;3.70;;;12.70;99.90;;;11.27;73.58;102257.72;2568442;30;137316;-40
2021/09/21 01:24:33;;;;;;;7.63;3.53;;;12.70;99.90;;;11.36;74.59;102263.97;2568323;30;138372;-40
2021/09/21 01:27:01;;;;;;;6.70;3.47;;;12.70;99.90;;;11.36;74.25;102263.97;2568366;30;137163;-40
2021/09/21 01:29:28;;;;;;;6.90;3.40;;;12.70;99.90;;;11.35;74.80;102260.38;2569131;30;137605;-40
2021/09/21 01:31:56;;;;;;;6.57;3.10;;;12.70;99.90;;;11.33;75.27;102267.91;2569256;30;137442;-40
2021/09/21 01:34:25;;;;;;;6.80;3.42;;;12.70;99.90;;;11.33;73.77;102267.91;2568335;30;138183;-40
2021/09/21 01:36:53;;;;;;;6.13;3.55;;;12.70;99.90;;;11.40;74.61;102267.16;2568710;30;138176;-40
2021/09/21 01:39:22;;;;;;;6.18;3.47;;;12.70;99.90;;;11.36;73.97;102266.69;2568656;30;137837;-40
2021/09/21 01:41:50;;;;;;;7.47;3.88;;;12.70;99.90;;;11.28;73.45;102269.50;2568519;30;137644;-40
2021/09/21 01:44:18;;;;;;;6.88;3.30;;;12.70;99.90;;;11.21;74.45;102255.72;2570036;30;137477;-39
2021/09/21 01:46:47;;;;;;;5.15;2.92;;;12.70;99.90;;;11.16;75.97;102260.88;2568429;30;138008;-40
2021/09/21 01:49:16;;;;;;;6.60;3.28;;;12.60;99.90;;;11.15;76.91;102260.00;2568570;30;139106;-40
2021/09/21 01:51:59;;;;;;;9.20;3.40;;;12.60;99.90;;;11.23;74.48;102261.84;2566266;30;137667;-40
2021/09/21 01:59:58;;;;;;;7.00;3.40;;;12.60;99.90;;;11.10;74.83;102273.38;2567052;30;138317;-40
2021/09/21 02:02:26;;;;;;;7.13;3.58;;;12.50;99.90;;;11.08;74.97;102269.97;2569419;30;137710;-40
2021/09/21 02:04:53;;;;;;;5.80;3.30;;;12.50;99.90;;;11.10;75.07;102275.25;2569849;30;138450;-40
2021/09/21 02:07:21;;;;;;;6.53;3.67;;;12.50;99.90;;;11.12;74.89;102276.78;2566799;30;137041;-40
2021/09/21 02:09:48;;;;;;;8.35;3.95;;;12.50;99.90;;;11.14;75.09;102279.31;2568683;30;138329;-40
2021/09/21 02:12:16;;;;;;;7.55;3.50;;;12.50;99.90;;;11.12;75.00;102274.03;2569609;30;137825;-40
2021/09/21 02:14:43;;;;;;;7.70;3.78;;;12.50;99.90;;;11.08;76.58;102279.00;2568532;30;139128;-40
2021/09/21 02:17:11;;;;;;;8.65;3.75;;;12.50;99.90;;;11.10;76.99;102283.44;2568919;30;136763;-40
2021/09/21 02:19:40;;;;;;;6.88;4.03;;;12.50;99.90;;;11.10;77.18;102281.56;2567228;30;138438;-40
2021/09/21 02:22:08;;;;;;;8.27;3.97;;;12.50;99.90;;;11.05;76.53;102282.09;2569960;30;137003;-40
2021/09/21 02:24:35;;;;;;;5.55;3.63;;;12.50;99.90;;;11.07;76.34;102285.50;2568675;30;138128;-40
2021/09/21 02:27:03;;;;;;;6.15;3.38;;;12.50;99.90;;;11.08;76.74;102280.91;2569742;30;137472;-40
2021/09/21 02:29:31;;;;;;;5.15;3.22;;;12.50;99.90;;;11.01;76.91;102269.00;2567994;30;138273;-40
2021/09/21 02:31:58;;;;;;;7.00;3.92;;;12.40;99.90;;;11.03;78.17;102267.78;2569299;30;137680;-40
2021/09/21 02:34:26;;;;;;;7.40;3.78;;;12.40;99.90;;;11.00;77.77;102276.31;2568111;30;138391;-40
2021/09/21 02:36:53;;;;;;;7.40;3.83;;;12.40;99.90;;;10.97;77.77;102267.63;2569988;30;137207;-40
2021/09/21 02:39:21;;;;;;;7.30;3.83;;;12.40;99.90;;;11.01;77.07;102264.38;2570814;30;138541;-40
2021/09/21 02:41:48;;;;;;;6.30;3.65;;;12.40;99.90;;;11.00;77.94;102268.13;2567906;30;137514;-40
2021/09/21 02:44:16;;;;;;;6.35;3.92;;;12.40;99.90;;;10.96;78.42;102264.06;2570231;30;138649;-40
2021/09/21 02:46:43;;;;;;;6.97;3.70;;;12.40;99.90;;;10.96;77.67;102268.66;2566512;30;137267;-40
2021/09/21 02:49:11;;;;;;;6.65;3.88;;;12.40;99.90;;;10.91;77.74;102269.22;2568222;30;139084;-40
2021/09/21 02:51:39;;;;;;;6.72;3.67;;;12.30;99.90;;;10.90;78.84;102279.28;2571634;30;137407;-40
2021/09/21 02:54:06;;;;;;;7.57;3.85;;;12.30;99.90;;;10.91;78.72;102280.16;2569016;30;139371;-40
2021/09/21 02:56:34;;;;;;;7.55;3.83;;;12.30;99.90;;;10.87;78.95;102278.78;2569007;30;137319;-40
2021/09/21 02:59:01;;;;;;;5.97;3.40;;;12.30;99.90;;;10.83;79.28;102282.91;2569392;30;138421;-40
2021/09/21 03:01:28;;;;;;;7.65;3.72;;;12.30;99.90;;;10.83;78.77;102277.44;2569984;30;137543;-40
2021/09/21 03:04:01;;;;;;;8.57;4.28;;;12.30;99.90;;;10.80;79.10;102275.94;2566736;30;139603;-40
2021/09/21 03:06:32;;;;;;;6.78;3.72;;;12.20;99.90;;;10.77;78.84;102265.38;2567145;30;136719;-40
2021/09/21 03:11:50;;;;;;;8.27;3.92;;;12.20;99.90;;;10.69;79.66;102266.25;2566752;30;137543;-40
2021/09/21 03:17:26;;;;;;;8.32;3.97;;;12.10;99.90;;;10.51;79.80;102263.78;2569630;30;138317;-40
2021/09/21 03:19:57;;;;;;;7.43;3.60;;;12.00;99.90;;;10.42;79.91;102276.59;2569484;30;140835;-40
2021/09/21 03:22:26;;;;;;;7.15;4.05;;;11.90;99.90;;;10.36;80.20;102289.03;2566997;30;137351;-40
2021/09/21 03:24:55;;;;;;;8.10;4.25;;;11.90;99.90;;;10.28;80.08;102288.19;2568559;30;138573;-41
2021/09/21 03:27:23;;;;;;;7.60;3.58;;;11.80;99.90;;;10.24;80.13;102293.19;2568341;30;137371;-40
2021/09/21 03:29:51;;;;;;;7.78;3.90;;;11.70;99.90;;;10.20;80.98;102298.13;2565559;30;138373;-41
2021/09/21 03:32:18;;;;;;;6.63;3.78;;;11.70;99.90;;;10.15;81.66;102308.69;2570339;30;137781;-40
2021/09/21 03:34:46;;;;;;;6.57;4.07;;;11.60;99.90;;;10.12;82.16;102303.59;2568739;30;138898;-40
2021/09/21 03:37:14;;;;;;;7.60;3.55;;;11.60;99.90;;;10.15;82.42;102302.38;2568772;30;136931;-40
2021/09/21 03:39:41;;;;;;;7.93;4.00;;;11.60;99.90;;;10.16;82.86;102315.84;2569335;30;138338;-40
2021/09/21 03:42:09;;;;;;;6.95;3.83;;;11.60;99.90;;;10.12;82.68;102300.88;2567194;30;137592;-40
2021/09/21 03:44:37;;;;;;;;;;;11.60;99.90;;;10.14;83.37;102317.03;2569503;30;138392;-40
2021/09/21 03:47:05;;;;;;;7.22;4.22;;;11.60;99.90;;;10.13;83.99;102320.78;2569802;30;137259;-40
2021/09/21 03:49:32;;;;;;;9.02;4.00;;;11.60;99.90;;;10.11;83.85;102329.16;2568863;30;138997;-40
2021/09/21 03:52:00;;;;;;;7.38;4.20;;;11.60;99.90;;;10.12;83.16;102330.88;2568083;30;136830;-40
2021/09/21 03:54:27;;;;;;;8.40;3.75;;;11.60;99.90;;;10.12;84.08;102339.03;2566007;30;138275;-40
2021/09/21 03:56:55;;;;;;;7.03;3.90;;;11.60;99.90;;;10.11;84.93;102336.47;2570947;30;137535;-40
2021/09/21 03:59:24;;;;;;;6.75;4.05;;;11.60;99.90;;;10.10;85.54;102348.41;2571102;30;138496;-40
2021/09/21 04:01:52;;;;;;;6.38;3.80;;;11.60;99.90;;;10.15;85.70;102351.47;2566398;30;138745;-40
2021/09/21 04:04:20;;;;;;;8.32;4.10;;;11.60;99.90;;;10.12;85.58;102352.69;2569260;30;136603;-40
2021/09/21 04:06:47;;;;;;;9.80;4.72;;;11.60;99.90;;;10.11;85.64;102356.44;2569784;30;136790;-40
2021/09/21 04:09:15;;;;;;;6.53;3.65;;;11.60;99.90;;;10.10;85.01;102360.19;2569794;30;138379;-40
2021/09/21 04:11:43;;;;;;;5.80;3.55;;;11.60;99.90;;;10.08;85.24;102368.53;2569648;30;137030;-40
2021/09/21 04:14:11;;;;;;;7.05;4.22;;;11.60;99.90;;;10.19;83.88;102366.47;2568117;30;138357;-40
2021/09/21 04:16:38;;;;;;;7.50;4.00;;;11.60;99.90;;;10.19;83.73;102367.31;2569372;30;137136;-40
2021/09/21 04:19:06;;;;;;;7.57;3.78;;;11.60;99.90;;;10.21;83.59;102369.88;2568243;30;138670;-40
2021/09/21 04:21:33;;;;;;;8.95;4.35;;;11.60;99.90;;;10.19;83.23;102374.63;2568907;30;137114;-40
2021/09/21 04:24:01;;;;;;;6.85;3.63;;;11.60;99.90;;;10.18;83.98;102379.25;2567508;30;137019;-40
2021/09/21 04:26:29;;;;;;;7.57;4.38;;;11.60;99.90;;;10.22;83.03;102385.25;2568788;30;136847;-40
2021/09/21 04:28:56;;;;;;;7.30;4.60;;;11.60;99.90;;;10.22;83.62;102382.50;2570584;30;137402;-40
2021/09/21 04:31:27;;;;;;;6.38;3.95;;;11.70;99.90;;;10.19;83.85;102383.69;2569288;30;137722;-40
2021/09/21 04:33:55;;;;;;;7.13;4.35;;;11.60;99.90;;;10.12;83.65;102381.81;2568633;30;139389;-40
2021/09/21 04:36:24;;;;;;;8.40;4.20;;;11.60;99.90;;;10.05;83.16;102385.25;2567771;30;138719;-40
2021/09/21 04:38:52;;;;;;;7.97;4.30;;;11.50;99.90;;;10.04;83.46;102393.56;2568991;30;138229;-40
2021/09/21 04:41:19;;;;;;;6.72;3.65;;;11.50;99.90;;;10.00;83.96;102395.81;2569344;30;137607;-40
2021/09/21 04:43:47;;;;;;;6.72;3.90;;;11.50;99.90;;;9.96;83.70;102399.91;2567094;30;138775;-40
2021/09/21 04:46:15;;;;;;;6.70;3.88;;;11.50;99.90;;;9.95;84.28;102400.94;2568396;30;138555;-40
2021/09/21 04:48:43;;;;;;;7.38;3.90;;;11.50;99.90;;;9.90;85.05;102412.31;2565237;30;138123;-40
2021/09/21 04:51:10;;;;;;;;;;;11.40;99.90;;;9.87;85.37;102409.94;2571310;30;136982;-40
2021/09/21 04:53:38;;;;;;;6.25;3.70;;;11.40;99.90;;;9.82;84.92;102406.88;2569095;30;138328;-40
2021/09/21 04:56:05;;;;;;;8.40;4.50;;;11.30;99.90;;;9.82;84.55;102406.88;2568176;30;136707;-40
2021/09/21 04:58:33;;;;;;;8.55;4.00;;;11.30;99.90;;;9.88;84.73;102422.56;2568994;30;138620;-40
2021/09/21 05:01:01;;;;;;;10.35;4.90;;;11.30;99.90;;;9.87;84.13;102417.25;2568781;30;137745;-40
2021/09/21 05:03:28;;;;;;;8.52;4.10;;;11.40;99.90;;;9.87;83.84;102418.13;2569419;30;138154;-40
2021/09/21 05:05:56;;;;;;;7.75;4.28;;;11.30;99.90;;;9.86;84.49;102421.00;2567146;30;138213;-40
2021/09/21 05:08:23;;;;;;;7.47;4.32;;;11.30;99.90;;;9.78;84.80;102428.16;2569583;30;139216;-40
2021/09/21 05:10:51;;;;;;;6.47;3.75;;;11.30;99.90;;;9.71;85.32;102427.13;2569150;30;136979;-40
2021/09/21 05:13:18;;;;;;;10.25;4.28;;;11.30;99.90;;;9.63;85.55;102435.28;2567352;30;138994;-40
2021/09/21 05:15:46;;;;;;;8.95;4.15;;;11.20;99.90;;;9.52;86.02;102425.53;2569417;30;137517;-40
2021/09/21 05:18:14;;;;;;;6.90;4.03;;;11.10;99.90;;;9.48;86.31;102424.16;2567902;30;138954;-40
2021/09/21 05:20:42;;;;;;;7.43;3.80;;;11.00;99.90;;;9.41;86.92;102429.41;2568264;30;137528;-40
2021/09/21 05:23:09;;;;;;;9.75;4.60;;;11.00;99.90;;;9.32;87.14;102433.13;2568037;30;138451;-40
2021/09/21 05:25:37;;;;;;;6.60;3.85;;;10.90;99.90;;;9.24;87.25;102442.13;2568958;30;138319;-40
2021/09/21 05:28:05;;;;;;;7.43;3.97;;;10.80;99.90;;;9.17;87.36;102438.34;2568092;30;138433;-40
2021/09/21 05:30:32;;;;;;;7.80;4.28;;;10.80;99.90;;;9.09;87.79;102444.63;2566209;30;138361;-40
2021/09/21 05:33:00;;;;;;;6.20;4.05;;;10.70;99.90;;;9.04;88.12;102457.88;2570744;30;137719;-40
2021/09/21 05:35:28;;;;;;;7.00;4.00;;;10.60;99.90;;;8.94;88.65;102433.47;2569914;30;138510;-41
2021/09/21 05:37:55;;;;;;;6.30;3.65;;;10.50;99.90;;;8.87;88.67;102435.16;2569967;30;137722;-40
2021/09/21 05:40:23;;;;;;;7.28;4.00;;;10.50;99.90;;;8.79;88.85;102446.84;2567243;30;137376;-40
2021/09/21 05:42:51;;;;;;;6.93;4.05;;;10.40;99.90;;;8.74;89.04;102446.47;2569273;30;137772;-40
2021/09/21 05:45:18;;;;;;;7.63;3.83;;;10.30;99.90;;;8.67;89.08;102429.09;2567929;30;137549;-40
2021/09/21 05:47:46;;;;;;;5.75;3.50;;;10.20;99.90;;;8.62;88.95;102440.44;2568938;30;138055;-40
2021/09/21 05:50:15;;;;;;;7.85;4.50;;;10.20;99.90;;;8.58;89.04;102433.63;2567409;30;137162;-40
2021/09/21 05:52:45;;;;;;;8.32;3.75;;;10.10;99.90;;;8.56;89.69;102446.53;2567878;30;139122;-40
2021/09/21 05:55:13;;;;;;;8.88;4.30;;;10.10;99.90;;;8.58;89.89;102458.09;2568118;30;137355;-40
2021/09/21 05:57:42;;;;;;;8.27;4.53;;;10.10;99.90;;;8.59;89.56;102465.25;2566938;30;138407;-40
2021/09/21 06:00:12;;;;;;;6.13;3.70;;;10.10;99.90;;;8.57;89.58;102456.41;2567655;30;137273;-40
2021/09/21 06:02:40;;;;;;;8.95;4.60;;;10.10;99.90;;;8.57;89.68;102459.97;2566765;30;138350;-40
2021/09/21 06:05:09;;;;;;;9.80;4.10;;;10.10;99.90;;;8.59;90.10;102468.81;2568697;30;138359;-40
2021/09/21 06:07:44;;;;;;;;;;;10.10;99.90;;;8.65;90.09;102482.81;2570613;30;137382;-40
2021/09/21 06:10:12;;;;;;;7.68;4.03;;;10.10;99.90;;;8.73;90.18;102493.75;2567975;30;137149;-40
2021/09/21 06:12:39;;;;;;;10.50;5.30;;;10.20;99.90;;;8.86;89.86;102488.72;2569160;30;137019;-40
2021/09/21 06:15:08;;;;;;;8.35;4.63;;;10.30;99.90;;;8.91;89.50;102483.69;2566843;30;136927;-40
2021/09/21 06:17:37;;;;;;;8.70;4.50;;;10.30;99.90;;;8.98;89.39;102489.31;2569081;30;137070;-40
2021/09/21 06:20:09;;;;;;;11.02;5.55;;;10.40;99.90;;;9.10;88.91;102494.50;2569781;30;136815;-40
2021/09/21 06:22:38;;;;;;;8.80;4.80;;;10.50;99.90;;;9.19;88.78;102485.34;2568097;30;137427;-40
2021/09/21 06:25:08;;;;;;;11.65;5.32;;;10.60;99.90;;;9.28;88.58;102480.78;2567375;30;137943;-40
2021/09/21 06:27:37;;;;;;;10.13;5.35;;;10.60;99.90;;;9.30;88.28;102463.28;2565821;30;138438;-40
2021/09/21 06:30:09;;;;;;;9.07;5.10;;;10.70;99.90;;;9.52;87.38;102485.47;2568195;30;137724;-40
2021/09/21 06:32:40;;;;;;;9.55;4.85;;;10.80;99.90;;;9.62;87.06;102480.75;2566406;30;138916;-40
2021/09/21 06:35:09;;;;;;;9.15;4.85;;;11.00;99.90;;;9.68;87.25;102489.28;2567028;30;137362;-40
2021/09/21 06:37:37;;;;;;;10.07;5.50;;;11.00;99.90;;;9.75;87.03;102491.19;2568708;30;138451;-40
2021/09/21 06:40:07;;;;;;;9.05;5.10;;;11.10;99.90;;;9.79;85.72;102502.59;2570526;30;137279;-40
2021/09/21 06:42:36;;;;;;;10.25;5.30;;;11.10;99.90;;;9.86;85.58;102500.94;2566627;38;137535;-40
2021/09/21 06:45:06;;;;;;;9.30;5.10;;;11.20;99.90;;;9.90;84.93;102502.28;2568965;30;137493;-40
2021/09/21 06:47:34;;;;;;;9.98;5.20;;;11.20;99.90;;;9.92;84.31;102502.97;2568063;30;138510;-40
2021/09/21 06:50:03;;;;;;;9.95;5.20;;;11.30;99.90;;;9.97;84.36;102496.16;2568100;30;136635;-40
2021/09/21 06:52:31;;;;;;;8.10;5.13;;;11.30;99.90;;;9.97;84.79;102499.75;2568778;30;137366;-40
2021/09/21 06:54:59;;;;;;;7.30;4.75;;;11.40;99.90;;;10.01;84.69;102514.75;2569395;30;137299;-40
2021/09/21 06:57:28;;;;;;;9.18;5.25;;;11.40;99.90;;;10.08;84.66;102512.22;2567616;30;138227;-40
2021/09/21 06:59:57;;;;;;;9.57;5.22;;;11.40;99.90;;;10.20;84.42;102513.59;2568858;30;137764;-40
2021/09/21 07:02:25;;;;;;;7.75;4.93;;;11.50;99.90;;;10.33;83.21;102517.69;2567304;30;137376;-40
2021/09/21 07:04:53;;;;;;;9.68;5.45;;;11.60;99.90;;;10.45;82.32;102521.81;2567787;30;137663;-40
2021/09/21 07:07:20;;;;;;;9.35;5.30;;;11.70;99.90;;;10.56;81.98;102525.22;2568664;30;138581;-41
2021/09/21 07:09:48;;;;;;;7.85;4.78;;;11.80;99.90;;;10.67;81.57;102533.09;2569684;30;137993;-41
2021/09/21 07:12:16;;;;;;;9.93;5.18;;;11.90;99.90;;;10.81;81.08;102525.22;2570927;30;139049;-40
2021/09/21 07:14:43;;;;;;;8.77;4.85;;;12.00;99.90;;;10.97;80.18;102524.34;2565536;30;138196;-40
2021/09/21 07:17:11;;;;;;;9.93;5.68;;;12.10;99.90;;;11.13;79.09;102528.91;2576841;30;138315;-39
2021/09/21 07:19:38;;;;;;;9.63;5.22;;;12.20;99.90;;;11.32;78.81;102533.16;2567085;30;137590;-40
2021/09/21 07:22:06;;;;;;;11.00;4.82;;;12.40;99.90;;;11.48;78.92;102543.16;2567520;30;138706;-40
2021/09/21 07:24:33;;;;;;;9.77;5.25;;;12.50;99.90;;;11.63;77.81;102535.06;2564339;30;137673;-40
2021/09/21 07:27:01;;;;;;;10.15;5.78;;;12.70;99.90;;;11.80;77.35;102536.69;2568189;30;138314;-40
2021/09/21 07:29:30;;;;;;;9.30;5.88;;;12.80;99.90;;;11.99;77.01;102545.47;2568073;30;137463;-40
2021/09/21 07:31:57;;;;;;;8.93;5.60;;;13.00;99.90;;;12.15;75.50;102547.28;2569987;30;137619;-40
2021/09/21 07:34:25;;;;;;;9.27;5.78;;;13.20;99.90;;;12.29;76.04;102550.28;2566452;30;136932;-41
2021/09/21 07:36:53;;;;;;;8.20;4.90;;;13.30;99.90;;;12.47;75.68;102558.19;2568084;30;137832;-40
2021/09/21 07:39:24;;;;;;;9.73;5.53;;;13.40;99.90;;;12.63;73.62;102549.00;2566983;30;136885;-40
2021/09/21 07:41:52;;;;;;;;;;;13.60;99.90;;;12.79;71.58;102551.59;2564494;30;139101;-40
2021/09/21 07:44:20;;;;;;;9.68;4.93;;;13.70;99.90;;;12.96;72.34;102556.91;2567941;30;136967;-40
2021/09/21 07:46:49;;;;;;;10.35;5.28;;;13.90;99.90;;;13.07;71.10;102552.84;2567990;30;137758;-40
2021/09/21 07:49:16;;;;;;;11.00;5.65;;;14.00;99.90;;;13.18;71.29;102546.94;2569246;30;137234;-40
2021/09/21 07:51:45;;;;;;;8.70;5.30;;;14.10;99.90;;;13.28;71.64;102554.88;2567555;30;137508;-41
2021/09/21 07:54:13;;;;;;;11.90;5.53;;;14.30;99.90;;;13.27;68.84;102561.41;2565437;30;137212;-40
2021/09/21 07:56:41;;;;;;;9.48;5.78;;;14.30;99.90;;;13.35;68.18;102555.81;2568936;30;140138;-40
2021/09/21 07:59:09;;;;;;;8.88;5.30;;;14.40;99.90;;;13.50;68.35;102552.22;2567547;30;138508;-38
2021/09/21 08:01:37;;;;;;;9.10;4.97;;;14.50;99.90;;;13.62;66.68;102561.69;2567804;30;137478;-40
2021/09/21 08:04:08;;;;;;;10.10;5.00;;;14.60;99.90;;;13.76;68.89;102561.84;2567716;30;136981;-42
2021/09/21 08:06:36;;;;;;;9.18;4.50;;;14.70;99.90;;;13.87;67.77;102564.13;2567453;30;138436;-43
2021/09/21 08:09:04;;;;;;;7.32;4.63;;;14.80;99.90;;;13.94;66.05;102561.47;2567429;30;136886;-40
2021/09/21 08:11:32;;;;;;;;;;;14.90;99.90;;;14.04;67.50;102564.75;2568263;30;139015;-40
2021/09/21 08:14:05;;;;;;;7.78;4.53;;;15.00;99.90;;;14.14;68.84;102561.69;2567499;30;137086;-40
2021/09/21 08:16:38;;;;;;;6.78;4.20;;;15.10;99.90;;;14.20;67.70;102571.88;2568537;30;137099;-41
2021/09/21 08:19:06;;;;;;;7.88;4.28;;;15.20;99.90;;;14.29;66.93;102577.25;2569084;30;137675;-40
2021/09/21 08:21:33;;;;;;;8.05;3.95;;;15.30;99.90;;;14.27;63.70;102584.81;2567064;30;138131;-40
2021/09/21 08:24:01;;;;;;;6.00;3.33;;;15.30;99.90;;;14.44;65.89;102580.78;2568682;30;136740;-41
2021/09/21 08:26:29;;;;;;;8.35;4.15;;;15.40;99.90;;;14.47;63.37;102580.41;2567277;30;138206;-43
2021/09/21 08:28:57;;;;;;;7.50;3.80;;;15.40;99.90;;;14.63;65.73;102582.03;2567914;30;137070;-40
2021/09/21 08:31:24;;;;;;;8.95;4.20;;;15.50;99.90;;;14.68;62.69;102584.19;2567813;30;137471;-40
2021/09/21 08:33:52;;;;;;;5.82;4.05;;;15.60;99.90;;;14.65;62.29;102581.84;2568795;30;137406;-40
2021/09/21 08:36:23;;;;;;;6.68;3.58;;;15.70;99.90;;;14.70;61.60;102593.09;2566681;30;137398;-40
2021/09/21 08:38:50;;;;;;;6.10;3.78;;;15.70;99.90;;;14.72;61.07;102595.66;2568395;30;137596;-40
2021/09/21 08:41:18;;;;;;;5.43;3.17;;;15.80;99.90;;;14.75;61.21;102581.53;2566152;30;138495;-40
2021/09/21 08:43:46;;;;;;;7.40;3.70;;;15.80;99.90;;;14.91;61.76;102583.16;2566984;30;136887;-40
2021/09/21 08:46:14;;;;;;;6.43;3.40;;;15.90;99.90;;;15.03;60.32;102600.78;2567164;30;138024;-40
2021/09/21 08:48:41;;;;;;;7.13;3.60;;;16.00;99.90;;;15.13;60.20;102607.84;2565207;30;137014;-40
2021/09/21 08:51:09;;;;;;;7.47;3.67;;;16.00;99.90;;;15.28;61.27;102607.75;2568400;30;139156;-40
2021/09/21 08:53:37;;;;;;;7.15;3.60;;;16.20;99.90;;;15.45;59.67;102613.78;2566875;30;138047;-40
2021/09/21 08:56:05;;;;;;;7.60;3.25;;;16.30;99.90;;;15.55;58.05;102617.00;2567201;30;138081;-41
2021/09/21 08:58:32;;;;;;;6.78;3.30;;;16.40;99.90;;;15.59;58.10;102618.31;2566894;30;138211;-41
2021/09/21 09:01:12;;;;;;;6.75;3.33;;;16.50;99.90;;;15.74;60.79;102617.34;2567232;30;138348;-40
2021/09/21 09:03:40;;;;;;;4.97;3.05;;;16.60;99.90;;;15.62;59.83;102620.63;2567995;30;137433;-40
2021/09/21 09:06:08;;;;;;;;;;;16.70;99.90;;;15.52;58.09;102614.66;2568147;30;138315;-40
2021/09/21 09:08:38;;;;;;;5.95;2.80;;;16.70;99.90;;;15.66;57.76;102610.97;2567687;30;137138;-40
2021/09/21 09:11:21;;;;;;;4.47;2.45;;;16.70;99.90;;;15.73;55.70;102615.63;2568243;30;138595;-40
2021/09/21 09:13:58;;;;;;;6.93;2.80;;;16.70;99.90;;;15.88;55.39;102621.88;2567766;30;137624;-40
2021/09/21 09:16:33;;;;;;;5.75;3.05;;;16.80;99.90;;;15.91;55.38;102615.97;2567652;30;138519;-41
2021/09/21 09:19:08;;;;;;;7.50;2.53;;;16.90;99.90;;;16.08;54.99;102615.59;2567692;30;137481;-40
2021/09/21 09:21:39;;;;;;;4.50;2.50;;;16.90;99.90;;;16.00;53.44;102622.13;2566636;30;137296;-40
2021/09/21 09:24:13;;;;;;;4.22;2.40;;;17.00;99.90;;;16.05;52.84;102622.38;2568159;30;136969;-40
2021/09/21 09:26:44;;;;;;;5.53;2.83;;;17.00;99.90;;;16.27;55.58;102627.72;2568418;30;136837;-41
2021/09/21 09:29:16;;;;;;;4.75;2.50;;;17.10;99.90;;;16.36;52.95;102622.91;2567549;30;137343;-42
2021/09/21 09:31:46;;;;;;;3.63;2.10;;;17.30;99.90;;;16.49;54.30;102622.94;2567265;30;138466;-41
2021/09/21 09:34:22;;;;;;;4.68;2.40;;;17.30;99.90;;;16.61;54.42;102614.03;2567844;30;137624;-40
2021/09/21 09:37:00;;;;;;;4.55;2.38;;;17.40;99.90;;;16.49;52.83;102620.19;2567669;30;138941;-39
2021/09/21 09:39:30;;;;;;;4.00;2.40;;;17.50;99.90;;;16.48;48.52;102612.97;2568129;30;138135;-40
2021/09/21 09:42:00;;;;;;;5.35;2.10;;;17.50;99.90;;;16.52;52.38;102614.25;2567306;30;138598;-40
2021/09/21 09:44:32;;;;;;;5.18;2.30;;;17.50;99.90;;;16.46;52.28;102612.34;2567983;30;137407;-40
2021/09/21 09:47:06;;;;;;;4.05;1.95;;;17.50;99.90;;;16.56;50.65;102616.59;2567373;30;137674;-40
2021/09/21 09:49:38;;;;;;;4.03;2.13;;;17.50;99.90;;;16.73;52.46;102615.13;2565933;30;136890;-40
2021/09/21 09:52:18;;;;;;;4.72;2.10;;;17.60;99.90;;;16.85;51.24;102618.13;2567898;30;137165;-40
2021/09/21 09:54:47;;;;;;;3.92;1.98;;;17.70;99.90;;;16.93;52.84;102620.66;2567071;30;137671;-40
2021/09/21 09:57:16;;;;;;;4.40;2.22;;;17.80;99.90;;;17.03;51.13;102619.41;2568696;30;137610;-42
2021/09/21 09:59:43;;;;;;;5.35;2.38;;;17.80;99.90;;;16.83;48.45;102615.56;2568412;30;136791;-41
2021/09/21 10:02:12;;;;;;;3.80;2.05;;;17.80;99.50;;;17.05;49.90;102622.78;2568062;30;137111;-40
2021/09/21 10:04:41;;;;;;;5.55;1.98;;;17.90;99.90;;;17.27;48.69;102625.34;2565488;30;138488;-40
2021/09/21 10:07:11;;;;;;;3.38;1.90;;;18.00;99.90;;;17.32;48.50;102622.78;2568220;30;137343;-40
2021/09/21 10:09:39;;;;;;;3.75;1.98;;;18.10;99.60;;;17.43;47.75;102622.13;2567645;30;137594;-40
2021/09/21 10:12:06;;;;;;;2.85;1.77;;;18.20;98.70;;;17.53;48.42;102627.22;2568060;30;136782;-40
2021/09/21 10:14:34;;;;;;;2.78;1.45;;;18.30;99.50;;;17.50;47.45;102622.09;2568490;30;136645;-40
2021/09/21 10:17:07;;;;;;;3.58;1.73;;;18.30;98.50;;;17.52;48.98;102626.34;2568758;30;137487;-42
2021/09/21 10:19:40;;;;;;;4.32;1.80;;;18.40;99.50;;;17.71;47.16;102629.28;2567977;30;138551;-42
2021/09/21 10:22:08;;;;;;;3.35;1.80;;;18.50;98.70;;;17.87;48.45;102614.16;2566784;30;137827;-40
2021/09/21 10:24:39;;;;;;;4.15;2.20;;;18.60;99.90;;;17.87;47.17;102627.09;2567674;30;137399;-41